Fantasy — H3GS — position and weather

sailwx.info

Track history (hours):
 
Tides and Currents Weather Stations Pressure Air Temp Water Temp Dewpoint Dewpoint Depression Visibility Wind Speed Wind Dir Waves Ship Positions

Fantasy

Operator: Carnival Cruise Lines

Last reported at 2017-Dec-10 00:40 UTC. Time now 2017-Dec-11 13:30 UTC.
Position N 20°37' W 086°56'.

Type: Ship. MMSI: 353486000.

Date/timePositionNaut miles runAvg speedWind from/ knotsBaromVisibWave heightAir tempDewpointWater temp
2017-Dec-10 00:40N 20°37' W 086°56'317.6
2017-Dec-10 00:30N 20°35' W 086°57'611.6
2017-Dec-10 00:00N 20°29' W 086°59'0 0.6
2017-Dec-09 23:30N 20°29' W 086°59'0 0.0
2017-Dec-09 23:00N 20°29' W 086°59'0 0.0
2017-Dec-09 22:26N 20°29' W 086°59'0 0.0
2017-Dec-09 21:59N 20°29' W 086°59'0 0.0
2017-Dec-09 21:29N 20°29' W 086°59'0 0.0
2017-Dec-09 20:59N 20°29' W 086°59'0 0.0
2017-Dec-09 20:28N 20°29' W 086°59'0 0.0
2017-Dec-09 19:58N 20°29' W 086°59'0 0.0
2017-Dec-09 19:28N 20°29' W 086°59'0 0.0
2017-Dec-09 18:58N 20°29' W 086°59'0 0.0
2017-Dec-09 18:28N 20°29' W 086°59'0 0.0
2017-Dec-09 18:00N 20°29' W 086°59'0 0.0
2017-Dec-09 17:30N 20°29' W 086°59'0 0.0
2017-Dec-09 16:54N 20°29' W 086°59'0 0.0
2017-Dec-09 16:30N 20°29' W 086°59'0 0.0
2017-Dec-09 16:00N 20°29' W 086°59'0 0.3
2017-Dec-09 15:30N 20°29' W 086°59'1 1.4
2017-Dec-09 15:00N 20°30' W 086°59'1 1.7
2017-Dec-09 14:30N 20°30' W 086°59'3 5.9
2017-Dec-09 14:00N 20°33' W 086°58'  
2017-Dec-05 06:00N 21°54' W 088°00'   100 / 281017.010.8 25.018.826.0
2017-Dec-01 05:00N 22°06' W 086°18'9617.2 050 / 251017.010.8 26.023.128.0
2017-Nov-30 23:26N 20°37' W 086°56'716.0
2017-Nov-30 23:00N 20°31' W 086°59'2 4.0
2017-Nov-30 22:30N 20°29' W 086°59'0 0.0
2017-Nov-30 21:59N 20°29' W 086°59'0 0.0
2017-Nov-30 21:26N 20°29' W 086°59'0 0.0
2017-Nov-30 20:59N 20°29' W 086°59'0 0.0
2017-Nov-30 20:29N 20°29' W 086°59'0 0.0
2017-Nov-30 19:58N 20°29' W 086°59'0 0.0
2017-Nov-30 19:28N 20°29' W 086°59'0 0.0
2017-Nov-30 18:58N 20°29' W 086°59'0 0.0
2017-Nov-30 18:25N 20°29' W 086°59'0 0.0
2017-Nov-30 17:58N 20°29' W 086°59'0 0.0
2017-Nov-30 17:30N 20°29' W 086°59'0 0.0
2017-Nov-30 17:00N 20°29' W 086°59'0 0.0
2017-Nov-30 16:30N 20°29' W 086°59'0 0.0
2017-Nov-30 16:00N 20°29' W 086°59'0 0.0
2017-Nov-30 15:30N 20°29' W 086°59'0 0.0
2017-Nov-30 14:59N 20°29' W 086°59'0 0.0
2017-Nov-30 14:23N 20°29' W 086°59'0 0.0
2017-Nov-30 13:59N 20°29' W 086°59'0 0.0
2017-Nov-30 13:29N 20°29' W 086°59'0 0.0
2017-Nov-30 12:52N 20°29' W 086°59'0 0.0
2017-Nov-30 12:28N 20°29' W 086°59'0 1.0
2017-Nov-30 12:00N 20°29' W 086°59'3 6.1
2017-Nov-30 11:30N 20°29' W 087°02'  
Track history (hours):
 
Tides and Currents Weather Stations Pressure Air Temp Water Temp Dewpoint Dewpoint Depression Visibility Wind Speed Wind Dir Waves Ship Positions

Fantasy

Operator: Carnival Cruise Lines

Last reported at 2017-Dec-10 00:40 UTC. Time now 2017-Dec-11 13:30 UTC.
Position N 20°37' W 086°56'.

Type: Ship. MMSI: 353486000.

Date/timePositionNaut miles runAvg speedWind from/ knotsBaromVisibWave heightAir tempDewpointWater temp
2017-Dec-10 00:40N 20°37' W 086°56'317.6
2017-Dec-10 00:30N 20°35' W 086°57'611.6
2017-Dec-10 00:00N 20°29' W 086°59'0 0.6
2017-Dec-09 23:30N 20°29' W 086°59'0 0.0
2017-Dec-09 23:00N 20°29' W 086°59'0 0.0
2017-Dec-09 22:26N 20°29' W 086°59'0 0.0
2017-Dec-09 21:59N 20°29' W 086°59'0 0.0
2017-Dec-09 21:29N 20°29' W 086°59'0 0.0
2017-Dec-09 20:59N 20°29' W 086°59'0 0.0
2017-Dec-09 20:28N 20°29' W 086°59'0 0.0
2017-Dec-09 19:58N 20°29' W 086°59'0 0.0
2017-Dec-09 19:28N 20°29' W 086°59'0 0.0
2017-Dec-09 18:58N 20°29' W 086°59'0 0.0
2017-Dec-09 18:28N 20°29' W 086°59'0 0.0
2017-Dec-09 18:00N 20°29' W 086°59'0 0.0
2017-Dec-09 17:30N 20°29' W 086°59'0 0.0
2017-Dec-09 16:54N 20°29' W 086°59'0 0.0
2017-Dec-09 16:30N 20°29' W 086°59'0 0.0
2017-Dec-09 16:00N 20°29' W 086°59'0 0.3
2017-Dec-09 15:30N 20°29' W 086°59'1 1.4
2017-Dec-09 15:00N 20°30' W 086°59'1 1.7
2017-Dec-09 14:30N 20°30' W 086°59'3 5.9
2017-Dec-09 14:00N 20°33' W 086°58'  
2017-Dec-05 06:00N 21°54' W 088°00'   100 / 281017.010.8 25.018.826.0
2017-Dec-01 05:00N 22°06' W 086°18'9617.2 050 / 251017.010.8 26.023.128.0
2017-Nov-30 23:26N 20°37' W 086°56'716.0
2017-Nov-30 23:00N 20°31' W 086°59'2 4.0
2017-Nov-30 22:30N 20°29' W 086°59'0 0.0
2017-Nov-30 21:59N 20°29' W 086°59'0 0.0
2017-Nov-30 21:26N 20°29' W 086°59'0 0.0
2017-Nov-30 20:59N 20°29' W 086°59'0 0.0
2017-Nov-30 20:29N 20°29' W 086°59'0 0.0
2017-Nov-30 19:58N 20°29' W 086°59'0 0.0
2017-Nov-30 19:28N 20°29' W 086°59'0 0.0
2017-Nov-30 18:58N 20°29' W 086°59'0 0.0
2017-Nov-30 18:25N 20°29' W 086°59'0 0.0
2017-Nov-30 17:58N 20°29' W 086°59'0 0.0
2017-Nov-30 17:30N 20°29' W 086°59'0 0.0
2017-Nov-30 17:00N 20°29' W 086°59'0 0.0
2017-Nov-30 16:30N 20°29' W 086°59'0 0.0
2017-Nov-30 16:00N 20°29' W 086°59'0 0.0
2017-Nov-30 15:30N 20°29' W 086°59'0 0.0
2017-Nov-30 14:59N 20°29' W 086°59'0 0.0
2017-Nov-30 14:23N 20°29' W 086°59'0 0.0
2017-Nov-30 13:59N 20°29' W 086°59'0 0.0
2017-Nov-30 13:29N 20°29' W 086°59'0 0.0
2017-Nov-30 12:52N 20°29' W 086°59'0 0.0
2017-Nov-30 12:28N 20°29' W 086°59'0 1.0
2017-Nov-30 12:00N 20°29' W 086°59'3 6.1
2017-Nov-30 11:30N 20°29' W 087°02'  

Dump ship's entire track history